Bangor, ME (04401)

9:43 PM EST on December 09, 2016 (GMT -0500)
Essex St Hill | | Change Station

Elev 208 ft 44.82 °N, 68.77 °W | Updated 1 second ago

Clear
Clear
20.1 °F
Feels Like 20 °F
N
3.0
Wind Variable Wind from NW
Gusts 9.0 mph

Today
High -- | Low -- °F
--% Chance of Precip.
Yesterday
High -- | Low -- °F
Precip. -- in
Pressure 30.00 in
Visibility 10.0 miles
Clouds Clear
Windchill 20 °F
Dew Point 8 °F
Humidity 60%
Rainfall 0.00 in
Snow Depth Not available.
7:01 AM 3:54 PM
Waxing Gibbous, 79% visible
METAR KBGR 100153Z 31009KT 10SM CLR M07/M12 A2999 RMK AO2 SLP158 T10671122
Pressure 30.00 in
Visibility 10.0 miles
Clouds Clear
Windchill 20 °F
Dew Point 8 °F
Humidity 60%
Rainfall 0.00 in
Snow Depth Not available.
7:01 AM 3:54 PM
Waxing Gibbous, 79% visible
METAR KBGR 100153Z 31009KT 10SM CLR M07/M12 A2999 RMK AO2 SLP158 T10671122

10-Day Weather Forecast

Almanac

Astronomy

Dec. 09, 2016 Rise Set
Actual Time
Civil Twilight
Nautical Twilight
Astronomical Twilight
Moon
Length of Visible Light
Length of Day
Tomorrow will be .
, % of the Moon is Illuminated

Today's Extremes

State Highs State Lows

Community

WunderPhotos

Upload Photos

1,956,532 photos uploaded!

WunderBlog® & News

Nearby

Air Quality

  Air Quality AQ Index Pollutant
Not available.

Snow Depth

Station Depth Elevation

Earthquake Activity

City Distance Mag. Time & Date
Minimum magnitude displayed is 2.5.

Coastal Water Temperatures

Place Temperature

Stations

Nearby Weather Stations

Station Location Temp. Windchill Dew Point Humidity Wind Precip. Elev Updated Type
                   

Watches & Warnings

There are currently no watches in effect.